createdAt,value
2023-04-25T00:00:10.164Z,13.17
2023-04-25T00:03:02.108Z,13.29
2023-04-25T00:05:31.622Z,13.19
2023-04-25T00:08:00.903Z,13.06
2023-04-25T00:10:29.768Z,13.00
2023-04-25T00:13:03.234Z,12.96
2023-04-25T00:15:32.440Z,12.95
2023-04-25T00:18:01.721Z,12.93
2023-04-25T00:20:31.091Z,13.00
2023-04-25T00:23:01.603Z,13.15
2023-04-25T00:25:30.505Z,13.23
2023-04-25T00:28:01.088Z,13.23
2023-04-25T00:30:30.032Z,13.03
2023-04-25T00:32:59.162Z,12.93
2023-04-25T00:35:28.259Z,12.85
2023-04-25T00:37:57.443Z,12.90
2023-04-25T00:40:26.472Z,12.98
2023-04-25T00:42:56.177Z,13.07
2023-04-25T00:45:29.216Z,13.12
2023-04-25T00:47:58.783Z,13.06
2023-04-25T00:50:27.604Z,12.87
2023-04-25T00:52:57.117Z,12.77
2023-04-25T00:55:26.175Z,12.74
2023-04-25T00:57:55.445Z,12.70
2023-04-25T01:00:24.347Z,12.64
2023-04-25T01:02:55.181Z,12.58
2023-04-25T01:05:24.303Z,12.57
2023-04-25T01:07:53.700Z,12.60
2023-04-25T01:10:23.009Z,12.63
2023-04-25T01:12:52.200Z,12.62
2023-04-25T01:15:21.287Z,12.59
2023-04-25T01:17:50.477Z,12.57
2023-04-25T01:20:23.261Z,12.53
2023-04-25T01:22:54.738Z,12.60
2023-04-25T01:25:24.205Z,12.61
2023-04-25T01:27:53.509Z,12.66
2023-04-25T01:30:22.596Z,12.63
2023-04-25T01:32:52.021Z,12.61
2023-04-25T01:35:21.074Z,12.59
2023-04-25T01:37:50.261Z,12.59
2023-04-25T01:40:21.707Z,12.56
2023-04-25T01:42:51.000Z,12.55
2023-04-25T01:45:20.222Z,12.57
2023-04-25T01:47:50.989Z,12.52
2023-04-25T01:50:21.144Z,12.50
2023-04-25T01:52:51.315Z,12.45
2023-04-25T01:55:23.536Z,12.43
2023-04-25T01:58:10.974Z,12.41
2023-04-25T02:01:00.266Z,12.41
2023-04-25T02:03:34.927Z,12.40
2023-04-25T02:06:06.610Z,12.40
2023-04-25T02:08:39.605Z,12.41
2023-04-25T02:11:09.905Z,12.40
2023-04-25T02:13:46.389Z,12.41
2023-04-25T02:16:27.033Z,12.42
2023-04-25T02:18:56.607Z,12.48
2023-04-25T02:21:25.371Z,12.49
2023-04-25T02:23:55.016Z,12.49
2023-04-25T02:26:25.977Z,12.46
2023-04-25T02:28:55.250Z,12.42
2023-04-25T02:31:24.160Z,12.40
2023-04-25T02:33:54.017Z,12.38
2023-04-25T02:36:22.964Z,12.39
2023-04-25T02:38:51.990Z,12.37
2023-04-25T02:41:23.310Z,12.38
2023-04-25T02:43:53.840Z,12.38
2023-04-25T02:46:32.145Z,12.38
2023-04-25T02:49:07.644Z,12.38
2023-04-25T02:51:37.430Z,12.37
2023-04-25T02:54:07.593Z,12.36
2023-04-25T02:56:40.832Z,12.37
2023-04-25T02:59:16.763Z,12.36
2023-04-25T03:01:46.368Z,12.36
2023-04-25T03:04:15.557Z,12.36
2023-04-25T03:06:44.390Z,12.34
2023-04-25T03:09:13.601Z,12.35
2023-04-25T03:11:42.709Z,12.35
2023-04-25T03:14:12.127Z,12.33
2023-04-25T03:16:42.537Z,12.32
2023-04-25T03:19:11.667Z,12.32
2023-04-25T03:21:40.635Z,12.33
2023-04-25T03:24:09.668Z,12.33
2023-04-25T03:26:39.602Z,12.32
2023-04-25T03:29:08.702Z,12.32
2023-04-25T03:31:40.482Z,12.31
2023-04-25T03:34:11.272Z,12.32
2023-04-25T03:36:41.766Z,12.48
2023-04-25T03:39:11.359Z,12.67
2023-04-25T03:41:41.729Z,12.71
2023-04-25T03:44:15.635Z,12.71
2023-04-25T03:46:44.539Z,12.62
2023-04-25T03:49:17.761Z,12.43
2023-04-25T03:52:05.011Z,12.36
2023-04-25T03:54:39.052Z,12.24
2023-04-25T03:57:11.625Z,12.17
2023-04-25T03:59:42.449Z,12.07
2023-04-25T04:02:14.708Z,11.97
2023-04-25T04:04:46.696Z,11.84
2023-04-25T04:07:16.645Z,11.81
2023-04-25T04:09:49.408Z,11.67
2023-04-25T04:12:26.411Z,11.56
2023-04-25T04:14:55.696Z,11.53
2023-04-25T04:17:24.509Z,11.48
2023-04-25T04:19:56.229Z,11.38
2023-04-25T04:22:25.240Z,11.33
2023-04-25T04:24:57.883Z,11.29
2023-04-25T04:27:47.098Z,11.21
2023-04-25T04:30:30.554Z,11.14
2023-04-25T04:33:03.217Z,11.08
2023-04-25T04:35:34.099Z,11.06
2023-04-25T04:38:03.291Z,11.03
2023-04-25T04:40:36.467Z,10.94
2023-04-25T04:43:27.059Z,10.95
2023-04-25T04:46:06.103Z,10.99
2023-04-25T04:48:35.219Z,11.04
2023-04-25T04:51:26.696Z,11.01
2023-04-25T04:53:59.388Z,11.01
2023-04-25T04:56:44.521Z,11.10
2023-04-25T04:59:25.769Z,11.05
2023-04-25T05:02:18.356Z,11.00
2023-04-25T05:05:01.600Z,10.93
2023-04-25T05:07:54.319Z,10.95
2023-04-25T05:10:35.413Z,10.97
2023-04-25T05:13:17.853Z,10.94
2023-04-25T05:16:07.229Z,10.93
2023-04-25T05:18:58.072Z,10.96
2023-04-25T05:21:46.361Z,11.03
2023-04-25T05:24:35.478Z,10.98
2023-04-25T05:27:26.731Z,10.94
2023-04-25T05:30:16.495Z,10.97
2023-04-25T05:32:59.121Z,10.95
2023-04-25T05:35:29.688Z,10.92
2023-04-25T05:37:58.926Z,10.89
2023-04-25T05:40:47.726Z,10.93
2023-04-25T05:43:46.171Z,10.91
2023-04-25T05:46:34.415Z,11.01
2023-04-25T05:49:19.603Z,10.89
2023-04-25T05:52:22.087Z,10.84
2023-04-25T05:55:04.734Z,10.87
2023-04-25T05:57:36.804Z,10.80
2023-04-25T06:00:10.242Z,10.75
2023-04-25T06:02:47.235Z,10.63
2023-04-25T06:05:17.563Z,10.53
2023-04-25T06:07:48.670Z,10.41
2023-04-25T06:10:17.642Z,10.43
2023-04-25T06:12:48.155Z,10.38
2023-04-25T06:15:28.249Z,10.37
2023-04-25T06:18:04.153Z,10.32
2023-04-25T06:20:33.691Z,10.29
2023-04-25T06:23:03.716Z,10.34
2023-04-25T06:25:53.247Z,10.34
2023-04-25T06:28:25.490Z,10.34
2023-04-25T06:30:54.657Z,10.38
2023-04-25T06:33:25.312Z,10.38
2023-04-25T06:35:55.357Z,10.33
2023-04-25T06:38:28.942Z,10.27
2023-04-25T06:40:59.780Z,10.27
2023-04-25T06:43:34.599Z,10.21
2023-04-25T06:46:12.446Z,10.26
2023-04-25T06:48:46.915Z,10.26
2023-04-25T06:51:16.120Z,10.29
2023-04-25T06:53:46.851Z,10.35
2023-04-25T06:56:26.235Z,10.36
2023-04-25T06:59:11.261Z,10.38
2023-04-25T07:01:42.349Z,10.39
2023-04-25T07:04:17.646Z,10.38
2023-04-25T07:06:51.942Z,10.42
2023-04-25T07:09:28.477Z,10.44
2023-04-25T07:11:58.426Z,10.42
2023-04-25T07:14:29.162Z,10.46
2023-04-25T07:16:59.296Z,10.46
2023-04-25T07:19:30.874Z,10.53
2023-04-25T07:22:03.187Z,10.50
2023-04-25T07:24:34.064Z,10.51
2023-04-25T07:27:03.488Z,10.51
2023-04-25T07:30:00.558Z,10.39
2023-04-25T07:32:29.602Z,10.44
2023-04-25T07:34:59.199Z,10.54
2023-04-25T07:37:28.567Z,10.57
2023-04-25T07:40:06.322Z,10.55
2023-04-25T07:42:36.638Z,10.59
2023-04-25T07:45:11.603Z,10.63
2023-04-25T07:47:41.902Z,10.62
2023-04-25T07:50:12.117Z,10.59
2023-04-25T07:52:41.179Z,10.51
2023-04-25T07:55:19.490Z,10.57
2023-04-25T07:58:11.410Z,10.61
2023-04-25T08:00:44.957Z,10.62
2023-04-25T08:03:32.605Z,10.68
2023-04-25T08:06:05.732Z,10.75
2023-04-25T08:08:42.686Z,10.80
2023-04-25T08:11:15.228Z,10.89
2023-04-25T08:13:44.026Z,10.95
2023-04-25T08:16:14.911Z,11.03
2023-04-25T08:18:45.413Z,11.08
2023-04-25T08:21:14.759Z,11.09
2023-04-25T08:23:43.967Z,11.12
2023-04-25T08:26:16.638Z,11.19
2023-04-25T08:28:45.804Z,11.28
2023-04-25T08:31:16.634Z,11.35
2023-04-25T08:33:56.935Z,11.40
2023-04-25T08:36:45.887Z,11.51
2023-04-25T08:39:25.810Z,11.57
2023-04-25T08:42:23.412Z,11.63
2023-04-25T08:44:52.985Z,11.77
2023-04-25T08:47:24.921Z,11.84
2023-04-25T08:49:59.675Z,11.88
2023-04-25T08:52:35.681Z,11.98
2023-04-25T08:55:05.558Z,12.11
2023-04-25T08:57:36.746Z,12.19
2023-04-25T09:00:06.917Z,12.27
2023-04-25T09:02:41.741Z,12.38
2023-04-25T09:05:12.105Z,12.48
2023-04-25T09:07:41.557Z,12.63
2023-04-25T09:10:10.939Z,12.70
2023-04-25T09:12:41.891Z,12.75
2023-04-25T09:15:12.693Z,12.76
2023-04-25T09:18:09.506Z,12.72
2023-04-25T09:20:59.612Z,12.71
2023-04-25T09:23:31.456Z,12.67
2023-04-25T09:26:00.465Z,12.66
2023-04-25T09:28:31.024Z,12.63
2023-04-25T09:31:03.332Z,12.68
2023-04-25T09:33:42.905Z,12.72
2023-04-25T09:36:14.329Z,12.75
2023-04-25T09:39:04.711Z,12.75
2023-04-25T09:41:39.676Z,12.67
2023-04-25T09:44:09.260Z,12.65
2023-04-25T09:46:39.735Z,12.62
2023-04-25T09:49:16.781Z,12.64
2023-04-25T09:52:07.564Z,12.69
2023-04-25T09:54:57.009Z,12.69
2023-04-25T09:57:32.173Z,12.72
2023-04-25T10:00:05.852Z,12.75
2023-04-25T10:02:44.515Z,12.76
2023-04-25T10:05:22.474Z,12.79
2023-04-25T10:07:51.608Z,12.75
2023-04-25T10:10:24.502Z,12.72
2023-04-25T10:12:53.537Z,12.79
2023-04-25T10:15:23.741Z,12.82
2023-04-25T10:17:52.926Z,12.91
2023-04-25T10:20:24.458Z,13.03
2023-04-25T10:22:55.150Z,13.13
2023-04-25T10:25:25.559Z,13.09
2023-04-25T10:27:54.690Z,13.13
2023-04-25T10:30:23.907Z,13.20
2023-04-25T10:32:53.028Z,13.27
2023-04-25T10:35:26.517Z,13.24
2023-04-25T10:37:58.913Z,13.30
2023-04-25T10:40:28.523Z,13.30
2023-04-25T10:42:57.592Z,13.28
2023-04-25T10:45:27.900Z,13.27
2023-04-25T10:47:56.833Z,13.29
2023-04-25T10:50:39.143Z,13.26
2023-04-25T10:53:16.473Z,13.31
2023-04-25T10:55:51.714Z,13.22
2023-04-25T10:58:23.398Z,13.15
2023-04-25T11:00:57.619Z,13.08
2023-04-25T11:03:28.408Z,13.07
2023-04-25T11:05:58.987Z,13.13
2023-04-25T11:08:38.661Z,13.05
2023-04-25T11:11:07.963Z,12.96
2023-04-25T11:13:36.885Z,12.95
2023-04-25T11:16:13.015Z,13.02
2023-04-25T11:18:43.333Z,13.00
2023-04-25T11:21:14.297Z,13.04
2023-04-25T11:23:43.371Z,13.03
2023-04-25T11:26:12.777Z,13.07
2023-04-25T11:28:41.758Z,13.00
2023-04-25T11:31:11.571Z,12.97
2023-04-25T11:33:41.856Z,13.08
2023-04-25T11:36:11.868Z,13.11
2023-04-25T11:38:42.770Z,13.10
2023-04-25T11:41:12.616Z,13.13
2023-04-25T11:43:43.391Z,13.13
2023-04-25T11:46:13.076Z,13.14
2023-04-25T11:48:41.904Z,13.19
2023-04-25T11:51:11.505Z,13.20
2023-04-25T11:53:44.610Z,13.21
2023-04-25T11:56:14.082Z,13.26
2023-04-25T11:59:02.878Z,13.29
2023-04-25T12:01:44.724Z,13.26
2023-04-25T12:04:14.257Z,13.23
2023-04-25T12:06:44.646Z,13.27
2023-04-25T12:09:15.656Z,13.28
2023-04-25T12:11:45.234Z,13.32
2023-04-25T12:14:14.198Z,13.43
2023-04-25T12:16:44.543Z,13.42
2023-04-25T12:19:16.065Z,13.58
2023-04-25T12:21:57.294Z,13.62
2023-04-25T12:24:29.411Z,13.70
2023-04-25T12:27:04.490Z,13.73
2023-04-25T12:29:41.974Z,13.82
2023-04-25T12:32:17.987Z,13.87
2023-04-25T12:34:47.367Z,13.85
2023-04-25T12:37:16.755Z,13.87
2023-04-25T12:39:47.168Z,13.82
2023-04-25T12:42:16.411Z,13.74
2023-04-25T12:44:45.877Z,13.80
2023-04-25T12:47:15.218Z,13.69
2023-04-25T12:49:43.974Z,13.65
2023-04-25T12:52:13.022Z,13.64
2023-04-25T12:54:41.990Z,13.52
2023-04-25T12:57:13.099Z,13.47
2023-04-25T12:59:42.116Z,13.32
2023-04-25T13:02:12.316Z,13.25
2023-04-25T13:04:41.803Z,13.28
2023-04-25T13:07:10.904Z,13.17
2023-04-25T13:09:41.123Z,12.96
2023-04-25T13:12:10.392Z,12.96
2023-04-25T13:14:40.730Z,13.05
2023-04-25T13:17:09.781Z,13.08
2023-04-25T13:19:39.908Z,13.05
2023-04-25T13:22:09.333Z,13.11
2023-04-25T13:24:38.345Z,13.06
2023-04-25T13:27:07.393Z,13.00
2023-04-25T13:29:36.618Z,13.02
2023-04-25T13:32:07.220Z,12.92
2023-04-25T13:34:36.348Z,12.91
2023-04-25T13:37:06.132Z,12.92
2023-04-25T13:39:35.114Z,12.91
2023-04-25T13:42:04.185Z,12.94
2023-04-25T13:44:33.128Z,12.99
2023-04-25T13:47:02.305Z,12.99
2023-04-25T13:49:32.609Z,13.00
2023-04-25T13:52:01.686Z,13.04
2023-04-25T13:54:30.785Z,13.06
2023-04-25T13:57:00.325Z,13.07
2023-04-25T13:59:29.769Z,13.11
2023-04-25T14:01:58.816Z,13.13
2023-04-25T14:04:34.292Z,13.12
2023-04-25T14:07:23.230Z,13.15
2023-04-25T14:09:53.885Z,13.17
2023-04-25T14:12:24.177Z,13.19
2023-04-25T14:14:55.518Z,13.21
2023-04-25T14:17:24.733Z,13.23
2023-04-25T14:19:53.665Z,13.24
2023-04-25T14:22:24.254Z,13.23
2023-04-25T14:24:53.262Z,13.23
2023-04-25T14:27:22.739Z,13.25
2023-04-25T14:29:51.968Z,13.24
2023-04-25T14:32:21.580Z,13.26
2023-04-25T14:34:52.050Z,13.24
2023-04-25T14:37:22.018Z,13.19
2023-04-25T14:39:52.467Z,13.14
2023-04-25T14:42:21.667Z,13.01
2023-04-25T14:44:53.661Z,12.91
2023-04-25T14:47:22.931Z,12.80
2023-04-25T14:49:55.116Z,12.52
2023-04-25T14:52:25.701Z,12.27
2023-04-25T14:54:56.122Z,12.14
2023-04-25T14:57:27.188Z,11.98
2023-04-25T14:59:56.253Z,11.89
2023-04-25T15:02:25.792Z,11.75
2023-04-25T15:04:54.878Z,11.67
2023-04-25T15:07:24.017Z,11.58
2023-04-25T15:09:54.346Z,11.55
2023-04-25T15:12:27.033Z,11.43
2023-04-25T15:14:56.206Z,11.34
2023-04-25T15:17:25.262Z,11.31
2023-04-25T15:19:55.653Z,11.29
2023-04-25T15:22:24.805Z,11.16
2023-04-25T15:24:53.740Z,11.08
2023-04-25T15:27:24.854Z,10.98
2023-04-25T15:29:56.230Z,10.94
2023-04-25T15:32:26.274Z,10.86
2023-04-25T15:34:55.416Z,10.90
2023-04-25T15:37:24.950Z,10.89
2023-04-25T15:40:06.937Z,10.85
2023-04-25T15:42:38.117Z,10.76
2023-04-25T15:45:11.713Z,10.70
2023-04-25T15:47:41.354Z,10.68
2023-04-25T15:50:12.343Z,10.63
2023-04-25T15:52:45.193Z,10.53
2023-04-25T15:55:15.906Z,10.45
2023-04-25T15:57:47.818Z,10.39
2023-04-25T16:00:17.651Z,10.31
2023-04-25T16:02:48.397Z,10.34
2023-04-25T16:05:18.481Z,10.26
2023-04-25T16:07:48.158Z,10.22
2023-04-25T16:10:22.010Z,10.23
2023-04-25T16:12:52.519Z,10.18
2023-04-25T16:15:23.823Z,10.19
2023-04-25T16:17:53.601Z,10.20
2023-04-25T16:20:23.554Z,10.14
2023-04-25T16:22:52.786Z,10.10
2023-04-25T16:25:22.860Z,10.13
2023-04-25T16:27:53.097Z,10.12
2023-04-25T16:30:22.374Z,10.09
2023-04-25T16:32:51.254Z,10.03
2023-04-25T16:35:20.498Z,10.02
2023-04-25T16:37:49.238Z,10.04
2023-04-25T16:40:18.536Z,10.03
2023-04-25T16:42:47.951Z,10.01
2023-04-25T16:45:22.279Z,9.94
2023-04-25T16:47:51.870Z,9.90
2023-04-25T16:50:21.834Z,9.87
2023-04-25T16:52:51.159Z,9.85
2023-04-25T16:55:20.388Z,9.85
2023-04-25T16:57:49.324Z,9.84
2023-04-25T17:00:20.214Z,9.86
2023-04-25T17:02:49.312Z,9.85
2023-04-25T17:05:18.798Z,9.84
2023-04-25T17:07:47.866Z,9.85
2023-04-25T17:10:17.147Z,9.95
2023-04-25T17:12:47.893Z,9.89
2023-04-25T17:15:17.284Z,9.94
2023-04-25T17:17:47.894Z,9.91
2023-04-25T17:20:17.298Z,9.88
2023-04-25T17:22:46.127Z,9.73
2023-04-25T17:25:15.354Z,9.73
2023-04-25T17:27:44.118Z,9.72
2023-04-25T17:30:17.171Z,9.84
2023-04-25T17:32:47.828Z,9.90
2023-04-25T17:35:17.652Z,9.78
2023-04-25T17:37:46.763Z,9.74
2023-04-25T17:40:15.961Z,9.67
2023-04-25T17:42:46.067Z,9.72
2023-04-25T17:45:15.274Z,9.70
2023-04-25T17:47:44.142Z,9.66
2023-04-25T17:50:16.869Z,9.63
2023-04-25T17:52:48.447Z,9.55
2023-04-25T17:55:17.950Z,9.47
2023-04-25T17:57:46.708Z,9.33
2023-04-25T18:00:16.359Z,9.32
2023-04-25T18:02:47.587Z,9.47
2023-04-25T18:05:19.379Z,9.46
2023-04-25T18:07:49.670Z,9.34
2023-04-25T18:10:18.739Z,9.43
2023-04-25T18:12:47.931Z,9.41
2023-04-25T18:15:17.148Z,9.29
2023-04-25T18:17:46.177Z,9.38
2023-04-25T18:20:17.498Z,9.37
2023-04-25T18:22:49.733Z,9.38
2023-04-25T18:25:19.104Z,9.32
2023-04-25T18:27:47.878Z,9.32
2023-04-25T18:30:17.068Z,9.28
2023-04-25T18:32:46.827Z,9.25
2023-04-25T18:35:16.199Z,9.22
2023-04-25T18:37:45.030Z,9.19
2023-04-25T18:40:16.363Z,9.07
2023-04-25T18:42:46.036Z,9.02
2023-04-25T18:45:15.293Z,9.10
2023-04-25T18:47:44.109Z,9.03
2023-04-25T18:50:13.238Z,8.94
2023-04-25T18:52:42.081Z,8.93
2023-04-25T18:55:13.296Z,8.89
2023-04-25T18:57:44.143Z,8.73
2023-04-25T19:00:14.592Z,8.75
2023-04-25T19:02:44.164Z,8.73
2023-04-25T19:05:13.636Z,8.70
2023-04-25T19:07:42.400Z,8.63
2023-04-25T19:10:12.249Z,8.57
2023-04-25T19:12:41.435Z,8.53
2023-04-25T19:15:12.391Z,8.48
2023-04-25T19:17:42.317Z,8.45
2023-04-25T19:20:11.742Z,8.37
2023-04-25T19:22:41.688Z,8.39
2023-04-25T19:25:11.425Z,8.39
2023-04-25T19:27:40.476Z,8.40
2023-04-25T19:30:12.834Z,8.30
2023-04-25T19:32:45.379Z,8.24
2023-04-25T19:35:16.048Z,8.21
2023-04-25T19:37:47.034Z,8.13
2023-04-25T19:40:18.017Z,8.16
2023-04-25T19:42:48.323Z,8.11
2023-04-25T19:45:17.684Z,8.06
2023-04-25T19:47:49.132Z,8.06
2023-04-25T19:50:19.754Z,8.01
2023-04-25T19:52:52.076Z,7.80
2023-04-25T19:55:23.304Z,7.71
2023-04-25T19:57:52.238Z,7.84
2023-04-25T20:00:22.198Z,7.75
2023-04-25T20:02:52.537Z,7.64
2023-04-25T20:05:21.825Z,7.57
2023-04-25T20:07:50.572Z,7.56
2023-04-25T20:10:20.364Z,7.56
2023-04-25T20:12:49.557Z,7.58
2023-04-25T20:15:19.006Z,7.64
2023-04-25T20:17:48.579Z,7.61
2023-04-25T20:20:19.292Z,7.59
2023-04-25T20:22:48.872Z,7.57
2023-04-25T20:25:18.293Z,7.56
2023-04-25T20:27:47.594Z,7.57
2023-04-25T20:30:16.764Z,7.57
2023-04-25T20:32:45.924Z,7.56
2023-04-25T20:35:15.385Z,7.55
2023-04-25T20:37:46.518Z,7.52
2023-04-25T20:40:16.252Z,7.46
2023-04-25T20:42:46.042Z,7.46
2023-04-25T20:45:16.762Z,7.46
2023-04-25T20:47:45.989Z,7.45
2023-04-25T20:50:16.933Z,7.42
2023-04-25T20:52:49.275Z,7.40
2023-04-25T20:55:18.712Z,7.37
2023-04-25T20:57:50.294Z,7.35
2023-04-25T21:00:27.004Z,7.34
2023-04-25T21:02:57.707Z,7.33
2023-04-25T21:05:27.454Z,7.31
2023-04-25T21:07:58.337Z,7.27
2023-04-25T21:10:27.828Z,7.24
2023-04-25T21:12:58.618Z,7.19
2023-04-25T21:15:30.548Z,7.14
2023-04-25T21:17:59.545Z,7.15
2023-04-25T21:20:28.791Z,7.14
2023-04-25T21:23:02.607Z,7.11
2023-04-25T21:25:32.977Z,7.04
2023-04-25T21:28:03.511Z,7.03
2023-04-25T21:30:33.061Z,7.02
2023-04-25T21:33:02.254Z,7.00
2023-04-25T21:35:31.418Z,6.98
2023-04-25T21:38:01.636Z,6.96
2023-04-25T21:40:31.051Z,6.92
2023-04-25T21:43:00.168Z,6.88
2023-04-25T21:45:31.013Z,6.88
2023-04-25T21:48:00.346Z,6.85
2023-04-25T21:50:29.486Z,6.85
2023-04-25T21:52:59.026Z,6.83
2023-04-25T21:55:29.752Z,6.75
2023-04-25T21:57:58.672Z,6.76
2023-04-25T22:00:28.627Z,6.86
2023-04-25T22:02:58.028Z,6.74
2023-04-25T22:05:27.623Z,6.73
2023-04-25T22:07:57.604Z,6.75
2023-04-25T22:10:26.723Z,6.73
2023-04-25T22:12:57.263Z,6.74
2023-04-25T22:15:26.780Z,6.71
2023-04-25T22:17:56.123Z,6.71
2023-04-25T22:20:26.463Z,6.77
2023-04-25T22:22:56.433Z,6.70
2023-04-25T22:25:25.812Z,6.70
2023-04-25T22:27:55.407Z,6.74
2023-04-25T22:30:25.964Z,6.75
2023-04-25T22:32:54.947Z,6.68
2023-04-25T22:35:24.091Z,6.76
2023-04-25T22:37:53.168Z,6.73
2023-04-25T22:40:22.425Z,6.68
2023-04-25T22:42:51.753Z,6.67
2023-04-25T22:45:20.825Z,6.59
2023-04-25T22:47:51.136Z,6.67
2023-04-25T22:50:20.508Z,6.73
2023-04-25T22:52:49.284Z,6.73
2023-04-25T22:55:18.535Z,6.78
2023-04-25T22:57:47.357Z,6.78
2023-04-25T23:00:20.279Z,6.75
2023-04-25T23:02:50.501Z,6.74
2023-04-25T23:05:21.524Z,6.72
2023-04-25T23:07:50.869Z,6.77
2023-04-25T23:10:19.907Z,6.75
2023-04-25T23:12:48.669Z,6.72
2023-04-25T23:15:18.034Z,6.75
2023-04-25T23:17:47.590Z,6.72
2023-04-25T23:20:16.715Z,6.71
2023-04-25T23:22:47.175Z,6.73
2023-04-25T23:25:16.530Z,6.72
2023-04-25T23:27:45.637Z,6.67
2023-04-25T23:30:15.361Z,6.60
2023-04-25T23:32:44.374Z,6.63
2023-04-25T23:35:13.482Z,6.64
2023-04-25T23:37:42.468Z,6.60
2023-04-25T23:40:13.336Z,6.59
2023-04-25T23:42:43.089Z,6.51
2023-04-25T23:45:14.422Z,6.55
2023-04-25T23:47:43.446Z,6.53
2023-04-25T23:50:12.869Z,6.48
2023-04-25T23:52:41.898Z,6.44
2023-04-25T23:55:11.026Z,6.33
2023-04-25T23:57:44.322Z,6.30
